createdAt,value
2022-12-17T00:02:41.149Z,5.35
2022-12-17T00:05:46.444Z,5.62
2022-12-17T00:08:53.954Z,6.33
2022-12-17T00:11:59.005Z,5.87
2022-12-17T00:15:04.851Z,5.95
2022-12-17T00:18:10.321Z,5.80
2022-12-17T00:21:18.316Z,5.22
2022-12-17T00:24:24.158Z,5.45
2022-12-17T00:27:29.336Z,4.95
2022-12-17T00:30:35.449Z,6.00
2022-12-17T00:33:42.281Z,4.80
2022-12-17T00:36:47.775Z,6.10
2022-12-17T00:39:59.001Z,5.28
2022-12-17T00:42:59.873Z,4.65
2022-12-17T00:46:05.351Z,5.00
2022-12-17T00:49:10.770Z,4.65
2022-12-17T00:52:16.606Z,5.03
2022-12-17T00:55:22.745Z,5.42
2022-12-17T00:58:28.042Z,4.73
2022-12-17T01:01:23.260Z,4.70
2022-12-17T01:04:28.896Z,5.50
2022-12-17T01:07:34.400Z,3.90
2022-12-17T01:10:40.254Z,4.47
2022-12-17T01:13:46.458Z,4.87
2022-12-17T01:16:52.438Z,4.28
2022-12-17T01:19:59.289Z,3.95
2022-12-17T01:23:05.077Z,4.80
2022-12-17T01:26:20.554Z,4.70
2022-12-17T01:29:25.030Z,4.28
2022-12-17T01:32:14.099Z,4.85
2022-12-17T01:35:19.276Z,3.83
2022-12-17T01:38:31.904Z,3.62
2022-12-17T01:41:37.902Z,3.33
2022-12-17T01:45:05.421Z,3.47
2022-12-17T01:48:13.583Z,3.42
2022-12-17T01:51:19.031Z,2.67
2022-12-17T01:54:24.724Z,2.62
2022-12-17T01:57:30.442Z,3.58
2022-12-17T02:00:37.419Z,2.98
2022-12-17T02:06:53.759Z,2.72
2022-12-17T02:10:05.167Z,2.62
2022-12-17T02:13:13.605Z,2.62
2022-12-17T02:16:28.385Z,2.40
2022-12-17T02:19:39.714Z,2.50
2022-12-17T02:22:54.245Z,2.40
2022-12-17T02:26:02.607Z,2.15
2022-12-17T02:29:09.824Z,1.92
2022-12-17T02:32:15.680Z,2.15
2022-12-17T02:35:23.065Z,2.05
2022-12-17T02:38:40.771Z,1.75
2022-12-17T02:41:57.740Z,2.17
2022-12-17T02:45:04.771Z,1.67
2022-12-17T02:48:11.528Z,2.40
2022-12-17T02:51:18.384Z,1.65
2022-12-17T02:57:28.919Z,1.90
2022-12-17T03:00:34.943Z,1.75
2022-12-17T03:03:42.905Z,1.77
2022-12-17T03:09:53.318Z,1.77
2022-12-17T03:16:03.585Z,2.02
2022-12-17T03:19:09.691Z,2.30
2022-12-17T03:22:14.789Z,1.83
2022-12-17T03:25:20.198Z,2.00
2022-12-17T03:28:27.183Z,2.25
2022-12-17T03:31:32.629Z,1.90
2022-12-17T03:34:38.126Z,1.80
2022-12-17T03:37:43.415Z,1.70
2022-12-17T03:40:49.173Z,1.80
2022-12-17T03:43:54.905Z,1.80
2022-12-17T03:47:00.705Z,1.50
2022-12-17T03:50:06.314Z,1.85
2022-12-17T03:53:15.087Z,1.80
2022-12-17T03:56:22.225Z,1.95
2022-12-17T03:59:27.695Z,1.57
2022-12-17T04:02:32.870Z,2.22
2022-12-17T04:05:37.621Z,2.10
2022-12-17T04:08:42.839Z,2.10
2022-12-17T04:11:48.110Z,2.10
2022-12-17T04:14:54.024Z,1.62
2022-12-17T04:17:59.662Z,2.25
2022-12-17T04:21:05.026Z,2.17
2022-12-17T04:24:10.374Z,1.60
2022-12-17T04:27:16.025Z,1.65
2022-12-17T04:30:14.147Z,1.65
2022-12-17T04:33:19.645Z,1.80
2022-12-17T04:36:25.300Z,2.25
2022-12-17T04:39:31.069Z,1.77
2022-12-17T04:42:36.547Z,1.80
2022-12-17T04:45:45.005Z,1.65
2022-12-17T04:48:50.446Z,1.62
2022-12-17T04:51:56.065Z,1.42
2022-12-17T04:55:01.707Z,1.62
2022-12-17T04:58:07.167Z,1.80
2022-12-17T05:01:13.441Z,1.50
2022-12-17T05:04:18.882Z,1.95
2022-12-17T05:07:24.420Z,1.73
2022-12-17T05:10:29.853Z,2.27
2022-12-17T05:13:37.537Z,2.27
2022-12-17T05:16:42.647Z,2.20
2022-12-17T05:19:48.100Z,2.65
2022-12-17T05:22:54.328Z,3.02
2022-12-17T05:25:59.720Z,3.08
2022-12-17T05:29:04.765Z,2.35
2022-12-17T05:32:10.759Z,3.00
2022-12-17T05:35:16.564Z,2.85
2022-12-17T05:38:23.778Z,2.58
2022-12-17T05:41:29.355Z,2.42
2022-12-17T05:44:34.647Z,3.33
2022-12-17T05:47:39.426Z,2.40
2022-12-17T05:50:48.537Z,2.30
2022-12-17T05:53:54.488Z,1.90
2022-12-17T05:56:59.977Z,2.50
2022-12-17T06:00:05.606Z,3.10
2022-12-17T06:03:22.930Z,2.80
2022-12-17T06:06:28.316Z,3.67
2022-12-17T06:09:33.570Z,3.27
2022-12-17T06:12:39.118Z,4.40
2022-12-17T06:15:44.662Z,3.40
2022-12-17T06:18:50.006Z,3.67
2022-12-17T06:21:55.468Z,4.05
2022-12-17T06:25:01.113Z,2.80
2022-12-17T06:28:06.274Z,2.58
2022-12-17T06:31:13.042Z,3.42
2022-12-17T06:37:22.907Z,4.65
2022-12-17T06:40:29.268Z,4.33
2022-12-17T06:43:35.386Z,2.65
2022-12-17T06:46:42.008Z,3.15
2022-12-17T06:49:47.448Z,3.87
2022-12-17T06:52:53.068Z,4.33
2022-12-17T06:55:58.724Z,4.12
2022-12-17T06:59:04.388Z,3.65
2022-12-17T07:02:09.887Z,4.10
2022-12-17T07:05:15.078Z,4.90
2022-12-17T07:08:20.677Z,5.17
2022-12-17T07:11:26.192Z,5.10
2022-12-17T07:14:31.280Z,5.50
2022-12-17T07:17:37.271Z,5.53
2022-12-17T07:20:42.439Z,6.87
2022-12-17T07:23:47.877Z,8.60
2022-12-17T07:26:53.257Z,8.05
2022-12-17T07:29:59.588Z,9.38
2022-12-17T07:33:04.816Z,8.93
2022-12-17T07:36:12.420Z,9.05
2022-12-17T07:39:17.742Z,11.22
2022-12-17T07:42:23.222Z,12.98
2022-12-17T07:45:28.761Z,13.22
2022-12-17T07:48:34.620Z,12.35
2022-12-17T07:51:40.048Z,12.93
2022-12-17T07:54:45.419Z,12.93
2022-12-17T07:57:50.653Z,12.28
2022-12-17T08:00:56.091Z,12.63
2022-12-17T08:04:01.548Z,13.15
2022-12-17T08:07:11.069Z,14.15
2022-12-17T08:10:15.271Z,14.33
2022-12-17T08:13:23.026Z,13.30
2022-12-17T08:16:28.363Z,14.13
2022-12-17T08:19:33.818Z,12.47
2022-12-17T08:22:38.587Z,12.93
2022-12-17T08:25:44.055Z,12.15
2022-12-17T08:28:50.868Z,13.80
2022-12-17T08:31:56.564Z,13.10
2022-12-17T08:35:02.483Z,12.90
2022-12-17T08:38:07.557Z,12.95
2022-12-17T08:41:12.943Z,13.85
2022-12-17T08:44:18.637Z,14.90
2022-12-17T08:47:24.424Z,13.80
2022-12-17T08:50:29.771Z,13.25
2022-12-17T08:53:35.393Z,14.60
2022-12-17T08:56:43.827Z,15.05
2022-12-17T08:59:49.553Z,13.55
2022-12-17T09:02:55.147Z,14.75
2022-12-17T09:06:01.098Z,14.05
2022-12-17T09:09:06.587Z,16.02
2022-12-17T09:12:13.029Z,15.15
2022-12-17T09:15:18.300Z,15.08
2022-12-17T09:18:23.700Z,14.75
2022-12-17T09:21:34.230Z,14.95
2022-12-17T09:24:39.710Z,15.38
2022-12-17T09:27:45.658Z,15.45
2022-12-17T09:30:53.195Z,14.90
2022-12-17T09:33:58.120Z,14.03
2022-12-17T09:37:04.431Z,13.58
2022-12-17T09:40:09.660Z,13.70
2022-12-17T09:43:21.054Z,13.25
2022-12-17T09:46:32.062Z,14.65
2022-12-17T09:49:43.410Z,16.27
2022-12-17T09:52:52.388Z,14.20
2022-12-17T09:56:06.275Z,15.72
2022-12-17T09:59:14.240Z,14.75
2022-12-17T10:02:23.306Z,15.40
2022-12-17T10:05:41.263Z,15.18
2022-12-17T10:11:52.603Z,13.38
2022-12-17T10:14:57.962Z,13.55
2022-12-17T10:18:02.034Z,13.90
2022-12-17T10:21:17.205Z,14.63
2022-12-17T10:24:27.538Z,14.25
2022-12-17T10:27:36.393Z,13.25
2022-12-17T10:30:43.083Z,13.30
2022-12-17T10:33:49.407Z,13.25
2022-12-17T10:36:54.617Z,13.40
2022-12-17T10:40:01.204Z,14.87
2022-12-17T10:43:04.918Z,14.70
2022-12-17T10:46:17.232Z,14.13
2022-12-17T10:49:31.074Z,15.15
2022-12-17T10:52:50.594Z,12.78
2022-12-17T10:55:56.193Z,14.18
2022-12-17T10:59:07.123Z,14.40
2022-12-17T11:02:15.867Z,15.83
2022-12-17T11:05:24.516Z,16.67
2022-12-17T11:08:35.196Z,15.23
2022-12-17T11:11:44.027Z,14.90
2022-12-17T11:14:52.627Z,16.23
2022-12-17T11:18:00.570Z,15.50
2022-12-17T11:21:09.090Z,13.95
2022-12-17T11:24:21.997Z,14.33
2022-12-17T11:27:26.643Z,15.30
2022-12-17T11:30:33.804Z,14.25
2022-12-17T11:33:42.220Z,14.78
2022-12-17T11:36:50.582Z,17.12
2022-12-17T11:40:08.236Z,16.40
2022-12-17T11:43:31.893Z,14.20
2022-12-17T11:46:55.660Z,14.07
2022-12-17T11:50:19.010Z,13.93
2022-12-17T11:53:59.724Z,15.63
2022-12-17T11:57:08.463Z,16.52
2022-12-17T12:00:19.727Z,14.35
2022-12-17T12:03:40.558Z,14.80
2022-12-17T12:07:01.234Z,15.45
2022-12-17T12:10:18.771Z,15.23
2022-12-17T12:13:30.419Z,15.50
2022-12-17T12:16:43.914Z,14.60
2022-12-17T12:19:57.459Z,15.50
2022-12-17T12:23:08.680Z,15.45
2022-12-17T12:26:16.988Z,14.80
2022-12-17T12:29:52.800Z,16.02
2022-12-17T12:33:04.297Z,15.60
2022-12-17T12:36:09.179Z,14.78
2022-12-17T12:39:16.304Z,14.47
2022-12-17T12:42:27.788Z,15.38
2022-12-17T12:49:32.894Z,16.12
2022-12-17T12:52:41.470Z,15.45
2022-12-17T12:55:57.794Z,14.85
2022-12-17T12:59:05.007Z,11.60
2022-12-17T13:02:10.121Z,14.38
2022-12-17T13:05:15.867Z,15.60
2022-12-17T13:08:06.503Z,15.55
2022-12-17T13:10:55.536Z,15.72
2022-12-17T13:13:47.242Z,16.00
2022-12-17T13:16:43.790Z,15.75
2022-12-17T13:19:39.777Z,16.10
2022-12-17T13:22:34.543Z,15.00
2022-12-17T13:25:26.426Z,17.95
2022-12-17T13:28:29.064Z,15.65
2022-12-17T13:31:19.608Z,16.80
2022-12-17T13:34:19.158Z,16.30
2022-12-17T13:37:15.880Z,17.10
2022-12-17T13:40:37.421Z,17.92
2022-12-17T13:43:27.658Z,17.57
2022-12-17T13:46:47.602Z,17.48
2022-12-17T13:49:34.423Z,17.67
2022-12-17T13:52:27.018Z,17.07
2022-12-17T13:55:29.199Z,17.55
2022-12-17T13:58:31.157Z,16.90
2022-12-17T14:01:20.239Z,19.60
2022-12-17T14:04:07.843Z,20.25
2022-12-17T14:07:01.834Z,18.45
2022-12-17T14:09:49.962Z,17.15
2022-12-17T14:12:37.164Z,15.98
2022-12-17T14:15:28.273Z,18.98
2022-12-17T14:18:18.566Z,16.27
2022-12-17T14:21:06.994Z,16.40
2022-12-17T14:23:55.601Z,17.30
2022-12-17T14:26:52.449Z,16.62
2022-12-17T14:29:42.611Z,17.07
2022-12-17T14:32:35.991Z,17.15
2022-12-17T14:35:31.934Z,17.95
2022-12-17T14:38:37.066Z,17.90
2022-12-17T14:41:31.768Z,19.15
2022-12-17T14:44:24.864Z,17.45
2022-12-17T14:47:15.382Z,17.98
2022-12-17T14:50:14.815Z,19.17
2022-12-17T14:53:06.976Z,18.73
2022-12-17T14:55:59.605Z,18.07
2022-12-17T14:58:47.254Z,17.85
2022-12-17T15:01:35.285Z,17.37
2022-12-17T15:04:23.129Z,17.45
2022-12-17T15:07:17.840Z,18.07
2022-12-17T15:10:05.778Z,18.45
2022-12-17T15:12:54.592Z,18.02
2022-12-17T15:15:42.763Z,17.05
2022-12-17T15:18:30.765Z,17.95
2022-12-17T15:21:19.249Z,17.07
2022-12-17T15:24:09.898Z,17.85
2022-12-17T15:27:00.250Z,18.75
2022-12-17T15:29:50.439Z,20.70
2022-12-17T15:32:38.470Z,18.00
2022-12-17T15:35:26.028Z,17.55
2022-12-17T15:38:13.862Z,19.98
2022-12-17T15:41:04.580Z,20.75
2022-12-17T15:43:54.459Z,20.82
2022-12-17T15:46:41.964Z,19.25
2022-12-17T15:49:29.311Z,19.02
2022-12-17T15:52:17.591Z,19.57
2022-12-17T15:55:05.120Z,18.92
2022-12-17T15:57:55.545Z,19.98
2022-12-17T16:00:42.865Z,21.90
2022-12-17T16:03:30.346Z,19.50
2022-12-17T16:06:17.898Z,19.55
2022-12-17T16:09:05.126Z,20.02
2022-12-17T16:11:55.792Z,20.52
2022-12-17T16:14:43.294Z,20.65
2022-12-17T16:17:30.895Z,21.48
2022-12-17T16:20:18.456Z,20.92
2022-12-17T16:23:10.276Z,21.90
2022-12-17T16:26:02.318Z,22.80
2022-12-17T16:28:49.904Z,21.25
2022-12-17T16:31:37.375Z,21.37
2022-12-17T16:34:24.705Z,22.42
2022-12-17T16:37:12.506Z,20.70
2022-12-17T16:40:01.774Z,19.60
2022-12-17T16:42:48.817Z,21.85
2022-12-17T16:45:35.981Z,22.10
2022-12-17T16:48:23.869Z,20.55
2022-12-17T16:51:24.450Z,20.35
2022-12-17T16:54:16.169Z,20.23
2022-12-17T16:57:03.799Z,22.22
2022-12-17T16:59:52.156Z,21.75
2022-12-17T17:02:39.983Z,21.97
2022-12-17T17:05:27.980Z,21.20
2022-12-17T17:08:16.376Z,21.70
2022-12-17T17:11:09.813Z,20.65
2022-12-17T17:13:57.961Z,22.10
2022-12-17T17:16:45.591Z,20.15
2022-12-17T17:19:32.885Z,21.75
2022-12-17T17:22:20.468Z,21.95
2022-12-17T17:25:08.219Z,20.77
2022-12-17T17:27:55.947Z,21.62
2022-12-17T17:30:43.128Z,22.35
2022-12-17T17:33:33.709Z,23.22
2022-12-17T17:36:23.977Z,23.00
2022-12-17T17:39:11.734Z,23.50
2022-12-17T17:41:59.351Z,23.13
2022-12-17T17:44:47.095Z,22.58
2022-12-17T17:47:34.604Z,22.98
2022-12-17T17:50:23.889Z,25.20
2022-12-17T17:53:11.291Z,26.80
2022-12-17T17:56:04.191Z,23.40
2022-12-17T17:58:54.022Z,24.63
2022-12-17T18:01:44.377Z,24.98
2022-12-17T18:04:32.203Z,22.35
2022-12-17T18:07:27.943Z,23.10
2022-12-17T18:10:09.667Z,24.92
2022-12-17T18:13:14.930Z,24.87
2022-12-17T18:16:03.005Z,22.87
2022-12-17T18:18:50.311Z,24.10
2022-12-17T18:21:38.314Z,23.15
2022-12-17T18:24:25.810Z,24.92
2022-12-17T18:27:12.899Z,27.55
2022-12-17T18:30:02.265Z,24.82
2022-12-17T18:32:49.587Z,28.70
2022-12-17T18:35:38.013Z,26.05
2022-12-17T18:38:25.268Z,26.65
2022-12-17T18:41:29.683Z,25.25
2022-12-17T18:44:17.710Z,27.05
2022-12-17T18:47:05.004Z,24.92
2022-12-17T18:49:53.966Z,26.52
2022-12-17T18:52:41.131Z,31.57
2022-12-17T18:55:28.557Z,28.50
2022-12-17T18:58:16.090Z,26.37
2022-12-17T19:01:03.704Z,28.17
2022-12-17T19:03:54.753Z,26.60
2022-12-17T19:06:43.521Z,26.02
2022-12-17T19:09:36.442Z,25.08
2022-12-17T19:12:25.270Z,25.55
2022-12-17T19:15:12.708Z,23.77
2022-12-17T19:17:59.820Z,25.30
2022-12-17T19:20:46.982Z,25.72
2022-12-17T19:23:34.838Z,25.72
2022-12-17T19:26:23.275Z,27.50
2022-12-17T19:29:13.108Z,27.65
2022-12-17T19:32:00.612Z,25.10
2022-12-17T19:34:48.010Z,25.75
2022-12-17T19:37:35.306Z,27.32
2022-12-17T19:40:25.681Z,25.25
2022-12-17T19:43:12.868Z,26.60
2022-12-17T19:46:09.097Z,26.40
2022-12-17T19:48:57.534Z,34.98
2022-12-17T19:51:45.606Z,30.70
2022-12-17T19:54:33.117Z,35.30
2022-12-17T19:57:25.280Z,27.22
2022-12-17T20:00:13.954Z,26.37
2022-12-17T20:03:03.946Z,22.42
2022-12-17T20:05:52.415Z,23.18
2022-12-17T20:08:43.070Z,22.22
2022-12-17T20:11:34.283Z,24.77
2022-12-17T20:14:28.130Z,23.07
2022-12-17T20:17:15.714Z,22.27
2022-12-17T20:20:02.859Z,22.10
2022-12-17T20:22:50.358Z,22.75
2022-12-17T20:25:37.257Z,24.00
2022-12-17T20:28:24.864Z,24.37
2022-12-17T20:31:13.152Z,22.75
2022-12-17T20:34:03.473Z,24.85
2022-12-17T20:36:51.387Z,26.17
2022-12-17T20:39:38.921Z,25.17
2022-12-17T20:42:26.126Z,22.80
2022-12-17T20:45:13.505Z,24.52
2022-12-17T20:48:01.041Z,23.32
2022-12-17T20:50:48.773Z,24.35
2022-12-17T20:53:36.374Z,24.98
2022-12-17T20:56:26.888Z,23.12
2022-12-17T20:59:17.012Z,24.45
2022-12-17T21:02:04.560Z,25.12
2022-12-17T21:04:51.976Z,25.70
2022-12-17T21:07:39.405Z,26.52
2022-12-17T21:10:26.877Z,27.22
2022-12-17T21:13:29.409Z,28.10
2022-12-17T21:16:22.820Z,26.60
2022-12-17T21:19:13.380Z,27.25
2022-12-17T21:22:00.671Z,27.75
2022-12-17T21:24:47.930Z,25.65
2022-12-17T21:27:36.668Z,27.90
2022-12-17T21:30:23.897Z,29.20
2022-12-17T21:33:11.138Z,27.87
2022-12-17T21:36:07.501Z,29.07
2022-12-17T21:38:53.453Z,26.00
2022-12-17T21:41:45.035Z,28.00
2022-12-17T21:44:32.180Z,27.27
2022-12-17T21:47:19.507Z,28.02
2022-12-17T21:50:07.048Z,26.55
2022-12-17T21:52:54.490Z,26.00
2022-12-17T21:55:42.228Z,26.37
2022-12-17T21:58:29.871Z,25.12
2022-12-17T22:01:24.970Z,25.50
2022-12-17T22:04:12.774Z,25.02
2022-12-17T22:07:06.920Z,24.50
2022-12-17T22:10:10.701Z,23.12
2022-12-17T22:12:55.623Z,23.73
2022-12-17T22:15:44.412Z,23.75
2022-12-17T22:18:31.978Z,23.30
2022-12-17T22:21:20.177Z,22.85
2022-12-17T22:24:08.374Z,23.32
2022-12-17T22:26:57.350Z,23.42
2022-12-17T22:30:02.234Z,22.75
2022-12-17T22:33:03.550Z,22.80
2022-12-17T22:37:22.334Z,23.02
2022-12-17T22:41:11.172Z,25.30
2022-12-17T22:44:37.050Z,23.32
2022-12-17T22:44:51.665Z,21.33
2022-12-17T22:47:25.274Z,22.40
2022-12-17T22:50:12.797Z,22.45
2022-12-17T22:53:00.675Z,21.23
2022-12-17T22:55:48.594Z,21.60
2022-12-17T22:58:37.575Z,21.37
2022-12-17T23:01:25.226Z,21.15
2022-12-17T23:04:15.532Z,19.73
2022-12-17T23:07:03.117Z,19.90
2022-12-17T23:09:50.536Z,20.48
2022-12-17T23:12:54.001Z,18.62
2022-12-17T23:15:41.462Z,18.45
2022-12-17T23:18:29.106Z,20.88
2022-12-17T23:21:19.614Z,17.30
2022-12-17T23:24:07.121Z,18.25
2022-12-17T23:26:54.552Z,19.20
2022-12-17T23:29:42.227Z,16.85
2022-12-17T23:32:29.390Z,18.60
2022-12-17T23:35:16.854Z,17.87
2022-12-17T23:38:04.021Z,18.05
2022-12-17T23:40:51.662Z,18.70
2022-12-17T23:43:40.433Z,17.40
2022-12-17T23:46:30.557Z,16.30
2022-12-17T23:49:17.739Z,16.30
2022-12-17T23:52:05.392Z,17.98
2022-12-17T23:54:53.005Z,17.07
2022-12-17T23:57:40.295Z,16.75
